East Sutton Ridge, Vermont
Current Conditions -  °F | °C
As of 11:35 PM on Friday 24 Oct 2014 (Local Time) from KCDA Reporting Station
Scattered Clouds Scattered Clouds  
Wind Chill:   Ceiling: Unl
Heat Index:   Visibility: 10mi
Dew Point:   Wind: 5mph
Humidity: 73%   Direction: 290°WNW
Pressure: 29.81"   Gusts: NA
Location:  44.6632°N, 72.0391°W
Report Text: KCDA 250335Z AUTO 29004KT 10SM SCT065 05/00 A2981 RMK AO2 T00460001
Loading
Personal Weather Stations






























Interactive Weather Map
Tropical Storm Tracking
New forecast layout! Learn more

10-Day Weather Forecast

Advertisements
Track Severe Weather on mobile